sensor_id;sensor_type;location;lat;lon;timestamp;pressure;altitude;pressure_sealevel;temperature;humidity
64644;BME280;51056;50.330;7.914;2024-01-15T00:02:45;99525.44;;;-1.83;97.01
64644;BME280;51056;50.330;7.914;2024-01-15T00:05:49;99532.13;;;-1.76;95.64
64644;BME280;51056;50.330;7.914;2024-01-15T00:08:52;99513.25;;;-1.71;94.60
64644;BME280;51056;50.330;7.914;2024-01-15T00:11:55;99500.31;;;-1.65;93.72
64644;BME280;51056;50.330;7.914;2024-01-15T00:14:59;99500.31;;;-1.65;94.09
64644;BME280;51056;50.330;7.914;2024-01-15T00:18:04;99489.72;;;-1.46;92.38
64644;BME280;51056;50.330;7.914;2024-01-15T00:21:08;99498.13;;;-1.39;89.58
64644;BME280;51056;50.330;7.914;2024-01-15T00:24:11;99494.66;;;-1.37;89.28
64644;BME280;51056;50.330;7.914;2024-01-15T00:27:15;99498.19;;;-1.43;88.64
64644;BME280;51056;50.330;7.914;2024-01-15T00:30:18;99486.16;;;-1.39;88.28
64644;BME280;51056;50.330;7.914;2024-01-15T00:33:22;99498.03;;;-1.35;88.09
64644;BME280;51056;50.330;7.914;2024-01-15T00:36:27;99497.19;;;-1.35;86.13
64644;BME280;51056;50.330;7.914;2024-01-15T00:39:31;99487.56;;;-1.24;86.76
64644;BME280;51056;50.330;7.914;2024-01-15T00:43:01;99486.28;;;-1.45;86.32
64644;BME280;51056;50.330;7.914;2024-01-15T00:46:05;99474.03;;;-1.31;87.31
64644;BME280;51056;50.330;7.914;2024-01-15T00:49:11;99472.38;;;-1.35;85.98
64644;BME280;51056;50.330;7.914;2024-01-15T00:52:17;99477.25;;;-1.23;86.31
64644;BME280;51056;50.330;7.914;2024-01-15T00:55:22;99469.03;;;-1.37;85.55
64644;BME280;51056;50.330;7.914;2024-01-15T00:58:29;99453.50;;;-1.31;85.64
64644;BME280;51056;50.330;7.914;2024-01-15T01:01:37;99462.78;;;-1.25;86.16
64644;BME280;51056;50.330;7.914;2024-01-15T01:04:41;99455.13;;;-1.27;85.18
64644;BME280;51056;50.330;7.914;2024-01-15T01:07:44;99437.84;;;-1.19;86.16
64644;BME280;51056;50.330;7.914;2024-01-15T01:10:47;99448.03;;;-1.15;85.79
64644;BME280;51056;50.330;7.914;2024-01-15T01:13:50;99449.94;;;-1.24;85.96
64644;BME280;51056;50.330;7.914;2024-01-15T01:16:54;99437.06;;;-1.22;85.98
64644;BME280;51056;50.330;7.914;2024-01-15T01:19:57;99436.47;;;-1.33;86.26
64644;BME280;51056;50.330;7.914;2024-01-15T01:23:00;99425.16;;;-1.25;86.30
64644;BME280;51056;50.330;7.914;2024-01-15T01:26:04;99428.50;;;-1.21;86.19
64644;BME280;51056;50.330;7.914;2024-01-15T01:29:07;99436.97;;;-1.18;86.62
64644;BME280;51056;50.330;7.914;2024-01-15T01:32:10;99434.69;;;-1.30;86.91
64644;BME280;51056;50.330;7.914;2024-01-15T01:35:14;99427.72;;;-1.25;86.85
64644;BME280;51056;50.330;7.914;2024-01-15T01:38:17;99443.75;;;-1.15;86.32
64644;BME280;51056;50.330;7.914;2024-01-15T01:41:20;99457.44;;;-1.16;86.33
64644;BME280;51056;50.330;7.914;2024-01-15T01:44:23;99441.34;;;-1.21;86.88
64644;BME280;51056;50.330;7.914;2024-01-15T01:47:27;99439.63;;;-1.22;88.03
64644;BME280;51056;50.330;7.914;2024-01-15T01:50:30;99437.31;;;-1.33;87.70
64644;BME280;51056;50.330;7.914;2024-01-15T01:53:35;99450.16;;;-1.34;88.00
64644;BME280;51056;50.330;7.914;2024-01-15T01:56:41;99437.06;;;-1.22;88.82
64644;BME280;51056;50.330;7.914;2024-01-15T01:59:45;99433.72;;;-1.24;89.78
64644;BME280;51056;50.330;7.914;2024-01-15T02:02:50;99438.09;;;-1.29;88.74
64644;BME280;51056;50.330;7.914;2024-01-15T02:05:53;99438.19;;;-1.34;89.15
64644;BME280;51056;50.330;7.914;2024-01-15T02:08:57;99436.41;;;-1.32;89.13
64644;BME280;51056;50.330;7.914;2024-01-15T02:12:00;99438.84;;;-1.26;89.55
64644;BME280;51056;50.330;7.914;2024-01-15T02:15:04;99437.31;;;-1.34;89.57
64644;BME280;51056;50.330;7.914;2024-01-15T02:18:09;99436.34;;;-1.29;89.72
64644;BME280;51056;50.330;7.914;2024-01-15T02:21:12;99437.31;;;-1.34;89.46
64644;BME280;51056;50.330;7.914;2024-01-15T02:24:15;99440.81;;;-1.37;89.76
64644;BME280;51056;50.330;7.914;2024-01-15T02:27:19;99420.25;;;-1.35;88.84
64644;BME280;51056;50.330;7.914;2024-01-15T02:30:24;99420.91;;;-1.26;88.11
64644;BME280;51056;50.330;7.914;2024-01-15T02:33:28;99433.91;;;-1.35;88.66
64644;BME280;51056;50.330;7.914;2024-01-15T02:36:31;99434.88;;;-1.41;89.64
64644;BME280;51056;50.330;7.914;2024-01-15T02:39:35;99437.44;;;-1.41;88.66
64644;BME280;51056;50.330;7.914;2024-01-15T02:42:38;99442.69;;;-1.45;89.53
64644;BME280;51056;50.330;7.914;2024-01-15T02:45:41;99457.19;;;-1.44;88.49
64644;BME280;51056;50.330;7.914;2024-01-15T02:48:44;99440.56;;;-1.26;88.87
64644;BME280;51056;50.330;7.914;2024-01-15T02:51:47;99442.84;;;-1.12;87.79
64644;BME280;51056;50.330;7.914;2024-01-15T02:54:51;99439.69;;;-1.24;87.56
64644;BME280;51056;50.330;7.914;2024-01-15T02:57:54;99437.31;;;-1.33;88.11
64644;BME280;51056;50.330;7.914;2024-01-15T03:00:57;99443.38;;;-1.37;87.03
64644;BME280;51056;50.330;7.914;2024-01-15T03:04:01;99444.81;;;-1.24;86.95
64644;BME280;51056;50.330;7.914;2024-01-15T03:07:04;99447.97;;;-1.12;87.34
64644;BME280;51056;50.330;7.914;2024-01-15T03:10:07;99447.09;;;-1.11;86.88
64644;BME280;51056;50.330;7.914;2024-01-15T03:13:10;99445.59;;;-1.22;85.94
64644;BME280;51056;50.330;7.914;2024-01-15T03:16:13;99431.94;;;-1.22;87.66
64644;BME280;51056;50.330;7.914;2024-01-15T03:19:17;99431.28;;;-1.32;88.88
64644;BME280;51056;50.330;7.914;2024-01-15T03:22:20;99443.38;;;-1.37;88.78
64644;BME280;51056;50.330;7.914;2024-01-15T03:25:23;99443.03;;;-1.22;88.34
64644;BME280;51056;50.330;7.914;2024-01-15T03:28:27;99439.53;;;-1.18;86.96
64644;BME280;51056;50.330;7.914;2024-01-15T03:31:30;99431.06;;;-1.21;87.49
64644;BME280;51056;50.330;7.914;2024-01-15T03:34:33;99440.25;;;-1.11;87.43
64644;BME280;51056;50.330;7.914;2024-01-15T03:37:37;99439.53;;;-1.18;88.19
64644;BME280;51056;50.330;7.914;2024-01-15T03:40:40;99434.16;;;-1.07;88.36
64644;BME280;51056;50.330;7.914;2024-01-15T03:43:43;99432.44;;;-1.06;86.95
64644;BME280;51056;50.330;7.914;2024-01-15T03:46:46;99439.41;;;-1.11;87.64
64644;BME280;51056;50.330;7.914;2024-01-15T03:49:50;99426.28;;;-0.99;87.65
64644;BME280;51056;50.330;7.914;2024-01-15T03:52:53;99436.63;;;-1.02;86.77
64644;BME280;51056;50.330;7.914;2024-01-15T03:55:56;99439.19;;;-1.02;87.23
64644;BME280;51056;50.330;7.914;2024-01-15T03:59:00;99430.50;;;-0.97;86.99
64644;BME280;51056;50.330;7.914;2024-01-15T04:02:04;99420.53;;;-1.09;87.71
64644;BME280;51056;50.330;7.914;2024-01-15T04:05:07;99423.34;;;-1.20;88.78
64644;BME280;51056;50.330;7.914;2024-01-15T04:08:10;99412.06;;;-1.12;89.25
64644;BME280;51056;50.330;7.914;2024-01-15T04:11:14;99415.31;;;-1.04;88.49
64644;BME280;51056;50.330;7.914;2024-01-15T04:14:17;99407.81;;;-1.13;88.60
64644;BME280;51056;50.330;7.914;2024-01-15T04:17:20;99414.53;;;-1.09;88.79
64644;BME280;51056;50.330;7.914;2024-01-15T04:20:24;99411.91;;;-1.05;89.05
64644;BME280;51056;50.330;7.914;2024-01-15T04:23:27;99411.72;;;-0.97;88.30
64644;BME280;51056;50.330;7.914;2024-01-15T04:26:31;99403.44;;;-1.08;87.77
64644;BME280;51056;50.330;7.914;2024-01-15T04:29:34;99413.47;;;-0.99;88.12
64644;BME280;51056;50.330;7.914;2024-01-15T04:32:37;99395.25;;;-0.88;87.85
64644;BME280;51056;50.330;7.914;2024-01-15T04:35:40;99392.84;;;-0.96;87.75
64644;BME280;51056;50.330;7.914;2024-01-15T04:38:44;99388.34;;;-0.86;87.29
64644;BME280;51056;50.330;7.914;2024-01-15T04:41:47;99395.50;;;-0.99;87.50
64644;BME280;51056;50.330;7.914;2024-01-15T04:44:51;99385.06;;;-0.91;87.52
64644;BME280;51056;50.330;7.914;2024-01-15T04:47:54;99397.69;;;-0.82;87.34
64644;BME280;51056;50.330;7.914;2024-01-15T04:51:00;99388.19;;;-0.79;87.63
64644;BME280;51056;50.330;7.914;2024-01-15T04:54:03;99382.91;;;-1.08;89.46
64644;BME280;51056;50.330;7.914;2024-01-15T04:57:07;99382.03;;;-1.09;90.34
64644;BME280;51056;50.330;7.914;2024-01-15T05:00:11;99371.78;;;-1.09;91.43
64644;BME280;51056;50.330;7.914;2024-01-15T05:03:15;99386.06;;;-0.97;91.79
64644;BME280;51056;50.330;7.914;2024-01-15T05:06:18;99395.75;;;-1.08;91.25
64644;BME280;51056;50.330;7.914;2024-01-15T05:09:22;99386.25;;;-1.05;90.89
64644;BME280;51056;50.330;7.914;2024-01-15T05:12:25;99376.69;;;-0.98;91.07
64644;BME280;51056;50.330;7.914;2024-01-15T05:15:28;99384.00;;;-0.83;90.21
64644;BME280;51056;50.330;7.914;2024-01-15T05:18:32;99380.47;;;-0.79;90.21
64644;BME280;51056;50.330;7.914;2024-01-15T05:21:36;99385.97;;;-0.94;90.52
64644;BME280;51056;50.330;7.914;2024-01-15T05:24:39;99379.25;;;-0.98;91.90
64644;BME280;51056;50.330;7.914;2024-01-15T05:27:43;99378.25;;;-0.92;91.13
64644;BME280;51056;50.330;7.914;2024-01-15T05:30:46;99374.72;;;-0.88;90.45
64644;BME280;51056;50.330;7.914;2024-01-15T05:33:50;99363.34;;;-0.78;89.72
64644;BME280;51056;50.330;7.914;2024-01-15T05:36:53;99372.50;;;-0.66;89.61
64644;BME280;51056;50.330;7.914;2024-01-15T05:39:57;99367.59;;;-0.77;90.23
64644;BME280;51056;50.330;7.914;2024-01-15T05:43:25;99361.84;;;-0.87;91.31
64644;BME280;51056;50.330;7.914;2024-01-15T05:46:29;99368.69;;;-0.86;91.79
64644;BME280;51056;50.330;7.914;2024-01-15T05:49:32;99366.06;;;-0.83;91.70
64644;BME280;51056;50.330;7.914;2024-01-15T05:52:36;99371.81;;;-0.73;91.58
64644;BME280;51056;50.330;7.914;2024-01-15T05:55:39;99378.63;;;-0.74;91.09
64644;BME280;51056;50.330;7.914;2024-01-15T05:58:42;99382.78;;;-0.68;90.87
64644;BME280;51056;50.330;7.914;2024-01-15T06:01:46;99376.72;;;-0.65;90.35
64644;BME280;51056;50.330;7.914;2024-01-15T06:04:49;99376.13;;;-0.75;91.06
64644;BME280;51056;50.330;7.914;2024-01-15T06:07:53;99377.53;;;-0.63;89.92
64644;BME280;51056;50.330;7.914;2024-01-15T06:10:57;99369.84;;;-0.63;90.52
64644;BME280;51056;50.330;7.914;2024-01-15T06:14:00;99372.50;;;-0.68;90.76
64644;BME280;51056;50.330;7.914;2024-01-15T06:17:05;99361.13;;;-0.58;91.65
64644;BME280;51056;50.330;7.914;2024-01-15T06:20:10;99362.84;;;-0.58;91.84
64644;BME280;51056;50.330;7.914;2024-01-15T06:23:14;99363.53;;;-0.52;91.18
64644;BME280;51056;50.330;7.914;2024-01-15T06:26:19;99366.09;;;-0.50;89.95
64644;BME280;51056;50.330;7.914;2024-01-15T06:29:25;99358.97;;;-0.40;89.25
64644;BME280;51056;50.330;7.914;2024-01-15T06:32:30;99362.53;;;-0.46;88.71
64644;BME280;51056;50.330;7.914;2024-01-15T06:35:35;99360.47;;;-0.32;88.44
64644;BME280;51056;50.330;7.914;2024-01-15T06:38:40;99365.56;;;-0.30;88.36
64644;BME280;51056;50.330;7.914;2024-01-15T06:41:44;99365.41;;;-0.26;87.71
64644;BME280;51056;50.330;7.914;2024-01-15T06:44:51;99357.53;;;-0.18;88.40
64644;BME280;51056;50.330;7.914;2024-01-15T06:47:56;99358.00;;;-0.36;87.60
64644;BME280;51056;50.330;7.914;2024-01-15T06:51:00;99362.47;;;-0.43;87.61
64644;BME280;51056;50.330;7.914;2024-01-15T06:54:12;99359.22;;;-0.51;88.18
64644;BME280;51056;50.330;7.914;2024-01-15T06:57:21;99366.94;;;-0.51;90.20
64644;BME280;51056;50.330;7.914;2024-01-15T07:00:25;99357.78;;;-0.61;92.61
64644;BME280;51056;50.330;7.914;2024-01-15T07:03:30;99350.72;;;-0.86;96.10
64644;BME280;51056;50.330;7.914;2024-01-15T07:06:33;99367.94;;;-0.91;97.32
64644;BME280;51056;50.330;7.914;2024-01-15T07:09:37;99365.22;;;-0.85;96.05
64644;BME280;51056;50.330;7.914;2024-01-15T07:12:43;99363.16;;;-0.71;95.27
64644;BME280;51056;50.330;7.914;2024-01-15T07:15:47;99357.63;;;-0.55;95.04
64644;BME280;51056;50.330;7.914;2024-01-15T07:18:50;99354.91;;;-0.49;95.54
64644;BME280;51056;50.330;7.914;2024-01-15T07:21:53;99356.34;;;-0.39;95.33
64644;BME280;51056;50.330;7.914;2024-01-15T07:24:57;99355.53;;;-0.39;95.65
64644;BME280;51056;50.330;7.914;2024-01-15T07:28:03;99358.59;;;-0.27;95.37
64644;BME280;51056;50.330;7.914;2024-01-15T07:31:08;99346.25;;;-0.12;95.10
64644;BME280;51056;50.330;7.914;2024-01-15T07:34:11;99342.59;;;-0.05;94.80
64644;BME280;51056;50.330;7.914;2024-01-15T07:37:15;99336.56;;;-0.03;94.40
64644;BME280;51056;50.330;7.914;2024-01-15T07:40:18;99344.28;;;-0.04;94.00
64644;BME280;51056;50.330;7.914;2024-01-15T07:43:21;99356.94;;;0.04;93.98
64644;BME280;51056;50.330;7.914;2024-01-15T07:46:25;99354.13;;;0.11;93.88
64644;BME280;51056;50.330;7.914;2024-01-15T07:49:28;99345.91;;;0.00;94.11
64644;BME280;51056;50.330;7.914;2024-01-15T07:52:32;99356.13;;;0.02;93.07
64644;BME280;51056;50.330;7.914;2024-01-15T07:55:35;99354.31;;;0.05;91.92
64644;BME280;51056;50.330;7.914;2024-01-15T07:58:38;99354.31;;;0.05;92.39
64644;BME280;51056;50.330;7.914;2024-01-15T08:01:42;99343.72;;;0.16;92.33
64644;BME280;51056;50.330;7.914;2024-01-15T08:04:45;99342.78;;;0.18;91.85
64644;BME280;51056;50.330;7.914;2024-01-15T08:07:48;99344.59;;;0.16;90.42
64644;BME280;51056;50.330;7.914;2024-01-15T08:10:52;99343.41;;;0.27;90.65
64644;BME280;51056;50.330;7.914;2024-01-15T08:13:56;99335.00;;;0.21;89.68
64644;BME280;51056;50.330;7.914;2024-01-15T08:16:59;99337.13;;;0.07;92.06
64644;BME280;51056;50.330;7.914;2024-01-15T08:20:03;99348.09;;;0.12;92.64
64644;BME280;51056;50.330;7.914;2024-01-15T08:23:07;99356.69;;;0.13;91.15
64644;BME280;51056;50.330;7.914;2024-01-15T08:26:11;99348.00;;;0.15;90.29
64644;BME280;51056;50.330;7.914;2024-01-15T08:29:14;99354.59;;;0.26;89.12
64644;BME280;51056;50.330;7.914;2024-01-15T08:32:17;99353.06;;;0.18;89.28
64644;BME280;51056;50.330;7.914;2024-01-15T08:35:21;99351.41;;;0.17;88.70
64644;BME280;51056;50.330;7.914;2024-01-15T08:38:25;99349.34;;;0.29;87.18
64644;BME280;51056;50.330;7.914;2024-01-15T08:41:33;99349.13;;;0.36;86.64
64644;BME280;51056;50.330;7.914;2024-01-15T08:44:37;99346.22;;;0.47;85.35
64644;BME280;51056;50.330;7.914;2024-01-15T08:47:42;99345.88;;;0.59;85.79
64644;BME280;51056;50.330;7.914;2024-01-15T08:50:45;99340.31;;;0.45;85.84
64644;BME280;51056;50.330;7.914;2024-01-15T08:53:50;99346.94;;;0.52;86.20
64644;BME280;51056;50.330;7.914;2024-01-15T08:56:53;99354.13;;;0.71;84.73
64644;BME280;51056;50.330;7.914;2024-01-15T08:59:57;99343.31;;;0.86;84.56
64644;BME280;51056;50.330;7.914;2024-01-15T09:03:00;99349.28;;;0.88;83.22
64644;BME280;51056;50.330;7.914;2024-01-15T09:06:03;99347.50;;;0.90;83.44
64644;BME280;51056;50.330;7.914;2024-01-15T09:09:06;99357.78;;;1.16;81.53
64644;BME280;51056;50.330;7.914;2024-01-15T09:12:10;99353.66;;;1.12;82.07
64644;BME280;51056;50.330;7.914;2024-01-15T09:15:13;99351.22;;;1.34;82.07
64644;BME280;51056;50.330;7.914;2024-01-15T09:18:16;99355.13;;;1.20;81.16
64644;BME280;51056;50.330;7.914;2024-01-15T09:21:20;99356.75;;;1.22;81.25
64644;BME280;51056;50.330;7.914;2024-01-15T09:24:23;99354.63;;;1.08;81.28
64644;BME280;51056;50.330;7.914;2024-01-15T09:27:27;99345.59;;;0.95;79.67
64644;BME280;51056;50.330;7.914;2024-01-15T09:30:30;99336.50;;;1.11;80.04
64644;BME280;51056;50.330;7.914;2024-01-15T09:33:34;99341.06;;;1.03;79.96
64644;BME280;51056;50.330;7.914;2024-01-15T09:36:40;99348.00;;;1.01;79.72
64644;BME280;51056;50.330;7.914;2024-01-15T09:39:45;99350.06;;;1.16;79.83
64644;BME280;51056;50.330;7.914;2024-01-15T09:42:49;99345.66;;;1.20;79.53
64644;BME280;51056;50.330;7.914;2024-01-15T09:45:53;99342.59;;;1.35;79.47
64644;BME280;51056;50.330;7.914;2024-01-15T09:48:56;99349.94;;;1.46;79.29
64644;BME280;51056;50.330;7.914;2024-01-15T09:52:01;99349.84;;;1.49;78.36
64644;BME280;51056;50.330;7.914;2024-01-15T09:55:05;99348.38;;;1.42;78.88
64644;BME280;51056;50.330;7.914;2024-01-15T09:58:08;99352.34;;;1.26;78.48
64644;BME280;51056;50.330;7.914;2024-01-15T10:01:14;99341.94;;;1.29;77.83
64644;BME280;51056;50.330;7.914;2024-01-15T10:04:18;99320.00;;;1.44;76.79
64644;BME280;51056;50.330;7.914;2024-01-15T10:07:22;99328.56;;;1.44;76.66
64644;BME280;51056;50.330;7.914;2024-01-15T10:10:26;99317.03;;;1.54;76.06
64644;BME280;51056;50.330;7.914;2024-01-15T10:13:30;99310.44;;;1.47;76.30
64644;BME280;51056;50.330;7.914;2024-01-15T10:16:33;99306.53;;;1.60;77.48
64644;BME280;51056;50.330;7.914;2024-01-15T10:19:36;99301.59;;;1.78;76.28
64644;BME280;51056;50.330;7.914;2024-01-15T10:22:42;99289.50;;;1.56;76.75
64644;BME280;51056;50.330;7.914;2024-01-15T10:25:46;99290.13;;;1.63;76.62
64644;BME280;51056;50.330;7.914;2024-01-15T10:28:50;99289.72;;;1.50;76.82
64644;BME280;51056;50.330;7.914;2024-01-15T10:31:54;99279.75;;;1.14;77.67
64644;BME280;51056;50.330;7.914;2024-01-15T10:34:57;99279.94;;;1.35;77.72
64644;BME280;51056;50.330;7.914;2024-01-15T10:38:01;99273.22;;;1.06;77.83
64644;BME280;51056;50.330;7.914;2024-01-15T10:41:05;99272.13;;;1.11;78.66
64644;BME280;51056;50.330;7.914;2024-01-15T10:44:08;99262.94;;;1.04;78.63
64644;BME280;51056;50.330;7.914;2024-01-15T10:47:11;99276.34;;;1.14;78.78
64644;BME280;51056;50.330;7.914;2024-01-15T10:50:15;99277.28;;;0.86;80.37
64644;BME280;51056;50.330;7.914;2024-01-15T10:53:20;99278.03;;;0.90;80.60
64644;BME280;51056;50.330;7.914;2024-01-15T10:56:23;99261.78;;;0.61;82.02
64644;BME280;51056;50.330;7.914;2024-01-15T10:59:28;99263.97;;;0.74;82.28
64644;BME280;51056;50.330;7.914;2024-01-15T11:02:36;99262.88;;;0.81;82.91
64644;BME280;51056;50.330;7.914;2024-01-15T11:05:44;99266.44;;;0.77;83.92
64644;BME280;51056;50.330;7.914;2024-01-15T11:08:49;99272.44;;;0.77;83.96
64644;BME280;51056;50.330;7.914;2024-01-15T11:12:12;99273.22;;;1.06;85.46
64644;BME280;51056;50.330;7.914;2024-01-15T11:15:19;99265.63;;;0.48;88.15
64644;BME280;51056;50.330;7.914;2024-01-15T11:18:23;99274.22;;;0.47;90.33
64644;BME280;51056;50.330;7.914;2024-01-15T11:21:27;99286.41;;;0.42;90.40
64644;BME280;51056;50.330;7.914;2024-01-15T11:24:39;99267.88;;;0.31;91.76
64644;BME280;51056;50.330;7.914;2024-01-15T11:27:44;99269.47;;;0.35;92.60
64644;BME280;51056;50.330;7.914;2024-01-15T11:30:47;99275.84;;;0.23;92.59
64644;BME280;51056;50.330;7.914;2024-01-15T11:33:51;99275.28;;;0.13;93.85
64644;BME280;51056;50.330;7.914;2024-01-15T11:40:02;99276.41;;;0.33;94.82
64644;BME280;51056;50.330;7.914;2024-01-15T11:43:08;99282.84;;;0.46;94.04
64644;BME280;51056;50.330;7.914;2024-01-15T11:46:12;99286.59;;;0.36;93.77
64644;BME280;51056;50.330;7.914;2024-01-15T11:49:17;99298.44;;;0.40;93.28
64644;BME280;51056;50.330;7.914;2024-01-15T11:52:38;99292.19;;;0.77;91.78
64644;BME280;51056;50.330;7.914;2024-01-15T11:55:44;99289.63;;;0.75;90.95
64644;BME280;51056;50.330;7.914;2024-01-15T11:58:47;99287.22;;;0.71;90.63
64644;BME280;51056;50.330;7.914;2024-01-15T12:01:51;99299.31;;;0.67;91.07
64644;BME280;51056;50.330;7.914;2024-01-15T12:04:54;99296.59;;;0.98;90.88
64644;BME280;51056;50.330;7.914;2024-01-15T12:07:59;99299.78;;;0.80;90.26
64644;BME280;51056;50.330;7.914;2024-01-15T12:11:07;99299.47;;;0.62;91.80
64644;BME280;51056;50.330;7.914;2024-01-15T12:14:14;99310.31;;;0.44;91.85
64644;BME280;51056;50.330;7.914;2024-01-15T12:17:17;99298.09;;;0.52;92.73
64644;BME280;51056;50.330;7.914;2024-01-15T12:20:21;99303.13;;;0.55;92.75
64644;BME280;51056;50.330;7.914;2024-01-15T12:23:24;99297.72;;;0.64;92.98
64644;BME280;51056;50.330;7.914;2024-01-15T12:26:27;99302.56;;;0.74;93.12
64644;BME280;51056;50.330;7.914;2024-01-15T12:29:30;99312.88;;;0.45;95.02
64644;BME280;51056;50.330;7.914;2024-01-15T12:32:34;99307.75;;;0.44;96.52
64644;BME280;51056;50.330;7.914;2024-01-15T12:35:37;99307.06;;;0.39;97.92
64644;BME280;51056;50.330;7.914;2024-01-15T12:38:40;99307.16;;;0.36;97.76
64644;BME280;51056;50.330;7.914;2024-01-15T12:41:44;99314.81;;;0.37;98.37
64644;BME280;51056;50.330;7.914;2024-01-15T12:44:47;99321.94;;;0.29;100.00
64644;BME280;51056;50.330;7.914;2024-01-15T12:47:50;99317.16;;;0.45;100.00
64644;BME280;51056;50.330;7.914;2024-01-15T12:50:55;99326.75;;;0.40;99.98
64644;BME280;51056;50.330;7.914;2024-01-15T12:53:58;99324.81;;;0.46;99.95
64644;BME280;51056;50.330;7.914;2024-01-15T12:57:02;99320.03;;;0.34;99.65
64644;BME280;51056;50.330;7.914;2024-01-15T13:00:06;99327.28;;;0.51;99.84
64644;BME280;51056;50.330;7.914;2024-01-15T13:03:16;99325.38;;;0.56;98.45
64644;BME280;51056;50.330;7.914;2024-01-15T13:06:21;99314.34;;;0.53;96.94
64644;BME280;51056;50.330;7.914;2024-01-15T13:09:24;99321.63;;;0.66;97.19
64644;BME280;51056;50.330;7.914;2024-01-15T13:12:29;99324.44;;;0.87;95.71
64644;BME280;51056;50.330;7.914;2024-01-15T13:15:32;99328.66;;;0.89;94.30
64644;BME280;51056;50.330;7.914;2024-01-15T13:18:36;99325.03;;;0.95;94.71
64644;BME280;51056;50.330;7.914;2024-01-15T13:21:43;99312.59;;;1.08;93.56
64644;BME280;51056;50.330;7.914;2024-01-15T13:24:57;99320.09;;;1.15;93.05
64644;BME280;51056;50.330;7.914;2024-01-15T13:28:01;99314.53;;;1.28;92.15
64644;BME280;51056;50.330;7.914;2024-01-15T13:31:06;99323.72;;;1.08;92.74
64644;BME280;51056;50.330;7.914;2024-01-15T13:34:11;99319.28;;;1.13;92.10
64644;BME280;51056;50.330;7.914;2024-01-15T13:37:18;99319.88;;;1.22;92.07
64644;BME280;51056;50.330;7.914;2024-01-15T13:40:22;99321.31;;;1.04;90.82
64644;BME280;51056;50.330;7.914;2024-01-15T13:43:27;99327.91;;;1.12;90.90
64644;BME280;51056;50.330;7.914;2024-01-15T13:46:31;99331.75;;;1.26;91.35
64644;BME280;51056;50.330;7.914;2024-01-15T13:49:34;99337.06;;;1.46;89.35
64644;BME280;51056;50.330;7.914;2024-01-15T13:52:40;99337.91;;;1.72;88.00
64644;BME280;51056;50.330;7.914;2024-01-15T13:55:43;99337.22;;;1.67;84.75
64644;BME280;51056;50.330;7.914;2024-01-15T13:58:47;99340.66;;;1.91;83.91
64644;BME280;51056;50.330;7.914;2024-01-15T14:01:51;99339.94;;;1.62;82.57
64644;BME280;51056;50.330;7.914;2024-01-15T14:04:54;99330.72;;;1.56;83.65
64644;BME280;51056;50.330;7.914;2024-01-15T14:07:58;99326.75;;;1.71;82.94
64644;BME280;51056;50.330;7.914;2024-01-15T14:11:02;99322.47;;;1.95;82.66
64644;BME280;51056;50.330;7.914;2024-01-15T14:14:05;99321.00;;;1.88;79.45
64644;BME280;51056;50.330;7.914;2024-01-15T14:17:11;99324.47;;;1.87;80.26
64644;BME280;51056;50.330;7.914;2024-01-15T14:20:14;99326.81;;;1.93;80.73
64644;BME280;51056;50.330;7.914;2024-01-15T14:23:17;99331.41;;;1.85;79.43
64644;BME280;51056;50.330;7.914;2024-01-15T14:26:21;99340.69;;;1.66;79.31
64644;BME280;51056;50.330;7.914;2024-01-15T14:29:24;99329.94;;;1.78;79.01
64644;BME280;51056;50.330;7.914;2024-01-15T14:32:29;99342.31;;;1.68;81.15
64644;BME280;51056;50.330;7.914;2024-01-15T14:35:32;99344.66;;;1.76;83.61
64644;BME280;51056;50.330;7.914;2024-01-15T14:38:36;99359.06;;;1.56;80.12
64644;BME280;51056;50.330;7.914;2024-01-15T14:41:40;99359.06;;;1.56;80.13
64644;BME280;51056;50.330;7.914;2024-01-15T14:44:45;99368.34;;;1.35;79.80
64644;BME280;51056;50.330;7.914;2024-01-15T14:47:48;99374.63;;;1.27;80.37
64644;BME280;51056;50.330;7.914;2024-01-15T14:50:52;99379.03;;;1.23;81.09
64644;BME280;51056;50.330;7.914;2024-01-15T14:53:55;99399.09;;;1.13;81.63
64644;BME280;51056;50.330;7.914;2024-01-15T14:56:58;99399.72;;;1.73;89.67
64644;BME280;51056;50.330;7.914;2024-01-15T15:00:01;99402.94;;;2.03;87.79
64644;BME280;51056;50.330;7.914;2024-01-15T15:03:05;99404.03;;;1.73;88.02
64644;BME280;51056;50.330;7.914;2024-01-15T15:06:08;99400.09;;;1.09;88.65
64644;BME280;51056;50.330;7.914;2024-01-15T15:09:12;99407.91;;;1.06;89.05
64644;BME280;51056;50.330;7.914;2024-01-15T15:12:15;99409.25;;;1.45;92.20
64644;BME280;51056;50.330;7.914;2024-01-15T15:15:19;99403.00;;;1.52;87.10
64644;BME280;51056;50.330;7.914;2024-01-15T15:18:23;99412.47;;;1.25;88.07
64644;BME280;51056;50.330;7.914;2024-01-15T15:21:26;99416.84;;;1.21;89.19
64644;BME280;51056;50.330;7.914;2024-01-15T15:24:31;99421.25;;;1.17;89.34
64644;BME280;51056;50.330;7.914;2024-01-15T15:27:35;99429.22;;;1.38;89.40
64644;BME280;51056;50.330;7.914;2024-01-15T15:30:38;99434.72;;;0.99;88.26
64644;BME280;51056;50.330;7.914;2024-01-15T15:33:42;99440.94;;;0.92;87.45
64644;BME280;51056;50.330;7.914;2024-01-15T15:36:45;99439.31;;;0.89;87.21
64644;BME280;51056;50.330;7.914;2024-01-15T15:39:48;99444.22;;;0.97;85.53
64644;BME280;51056;50.330;7.914;2024-01-15T15:42:52;99443.59;;;0.89;87.14
64644;BME280;51056;50.330;7.914;2024-01-15T15:45:58;99448.06;;;0.84;88.70
64644;BME280;51056;50.330;7.914;2024-01-15T15:49:01;99445.81;;;1.01;89.56
64644;BME280;51056;50.330;7.914;2024-01-15T15:52:09;99449.56;;;0.91;89.42
64644;BME280;51056;50.330;7.914;2024-01-15T15:55:13;99467.81;;;0.83;89.51
64644;BME280;51056;50.330;7.914;2024-01-15T15:58:17;99468.00;;;0.76;89.85
64644;BME280;51056;50.330;7.914;2024-01-15T16:01:21;99463.75;;;0.75;90.39
64644;BME280;51056;50.330;7.914;2024-01-15T16:04:25;99467.16;;;0.77;89.57
64644;BME280;51056;50.330;7.914;2024-01-15T16:07:29;99479.19;;;0.75;89.74
64644;BME280;51056;50.330;7.914;2024-01-15T16:10:33;99489.22;;;0.84;89.38
64644;BME280;51056;50.330;7.914;2024-01-15T16:13:36;99490.97;;;0.83;89.13
64644;BME280;51056;50.330;7.914;2024-01-15T16:16:40;99497.72;;;0.86;91.09
64644;BME280;51056;50.330;7.914;2024-01-15T16:19:44;99496.22;;;0.79;92.37
64644;BME280;51056;50.330;7.914;2024-01-15T16:22:48;99499.78;;;0.75;93.95
64644;BME280;51056;50.330;7.914;2024-01-15T16:25:53;99510.06;;;0.75;93.08